createdAt,value
2022-08-22T00:00:14.567Z,97183.97
2022-08-22T00:02:59.130Z,97188.84
2022-08-22T00:03:18.477Z,97190.81
2022-08-22T00:06:17.613Z,97185.13
2022-08-22T00:08:52.667Z,97184.88
2022-08-22T00:11:35.604Z,97186.31
2022-08-22T00:14:43.272Z,97176.22
2022-08-22T00:17:20.241Z,97187.78
2022-08-22T00:20:09.811Z,97182.59
2022-08-22T00:22:47.673Z,97180.75
2022-08-22T00:25:44.177Z,97178.09
2022-08-22T00:28:25.426Z,97174.53
2022-08-22T00:31:09.113Z,97163.25
2022-08-22T00:33:48.525Z,97171.91
2022-08-22T00:36:30.246Z,97171.03
2022-08-22T00:39:18.967Z,97180.72
2022-08-22T00:42:00.723Z,97169.28
2022-08-22T00:44:39.299Z,97171.63
2022-08-22T00:47:24.424Z,97180.06
2022-08-22T00:49:57.080Z,97172.03
2022-08-22T00:52:52.940Z,97175.03
2022-08-22T00:55:53.368Z,97163.63
2022-08-22T00:58:27.154Z,97168.53
2022-08-22T01:00:59.890Z,97167.47
2022-08-22T01:03:44.711Z,97161.13
2022-08-22T01:06:23.503Z,97170.47
2022-08-22T01:09:28.110Z,97170.75
2022-08-22T01:11:54.623Z,97172.69
2022-08-22T01:14:44.233Z,97165.94
2022-08-22T01:17:26.780Z,97169.53
2022-08-22T01:20:25.433Z,97168.94
2022-08-22T01:23:19.900Z,97167.50
2022-08-22T01:26:24.082Z,97168.56
2022-08-22T01:29:15.040Z,97162.81
2022-08-22T01:32:36.896Z,97164.59
2022-08-22T01:35:25.140Z,97161.84
2022-08-22T01:38:15.388Z,97164.69
2022-08-22T01:41:00.375Z,97171.75
2022-08-22T01:43:59.877Z,97163.44
2022-08-22T01:46:37.061Z,97158.81
2022-08-22T01:49:24.006Z,97161.25
2022-08-22T01:51:54.132Z,97159.59
2022-08-22T01:54:27.213Z,97159.78
2022-08-22T01:57:01.121Z,97166.53
2022-08-22T01:59:53.612Z,97163.47
2022-08-22T02:02:36.725Z,97166.25
2022-08-22T02:05:13.059Z,97158.59
2022-08-22T02:07:57.429Z,97165.53
2022-08-22T02:10:41.820Z,97157.06
2022-08-22T02:13:25.068Z,97151.88
2022-08-22T02:16:07.016Z,97154.28
2022-08-22T02:18:50.261Z,97148.81
2022-08-22T02:21:26.575Z,97156.78
2022-08-22T02:24:19.185Z,97158.22
2022-08-22T02:27:08.466Z,97161.47
2022-08-22T02:29:57.781Z,97158.19
2022-08-22T02:32:46.107Z,97161.00
2022-08-22T02:35:12.531Z,97158.28
2022-08-22T02:37:54.008Z,97161.50
2022-08-22T02:40:28.093Z,97160.81
2022-08-22T02:43:29.176Z,97149.84
2022-08-22T02:46:22.980Z,97149.03
2022-08-22T02:49:03.460Z,97157.97
2022-08-22T02:52:10.329Z,97153.53
2022-08-22T02:54:53.480Z,97157.22
2022-08-22T02:57:40.196Z,97155.69
2022-08-22T03:00:25.002Z,97157.59
2022-08-22T03:02:59.322Z,97150.81
2022-08-22T03:05:45.717Z,97151.63
2022-08-22T03:08:29.306Z,97148.66
2022-08-22T03:11:08.008Z,97148.66
2022-08-22T03:13:46.561Z,97145.41
2022-08-22T03:16:26.435Z,97151.91
2022-08-22T03:19:05.810Z,97150.28
2022-08-22T03:21:43.402Z,97150.03
2022-08-22T03:24:45.455Z,97147.59
2022-08-22T03:27:27.808Z,97147.03
2022-08-22T03:30:11.294Z,97143.50
2022-08-22T03:32:55.493Z,97143.78
2022-08-22T03:35:26.668Z,97147.59
2022-08-22T03:38:08.975Z,97148.69
2022-08-22T03:41:01.853Z,97145.41
2022-08-22T03:43:43.460Z,97138.91
2022-08-22T03:46:12.964Z,97140.25
2022-08-22T03:49:11.152Z,97146.53
2022-08-22T03:52:05.876Z,97147.84
2022-08-22T03:55:14.154Z,97143.25
2022-08-22T03:57:55.961Z,97150.56
2022-08-22T04:00:28.550Z,97152.75
2022-08-22T04:03:09.925Z,97155.72
2022-08-22T04:05:54.840Z,97155.47
2022-08-22T04:08:33.354Z,97163.84
2022-08-22T04:11:16.620Z,97164.09
2022-08-22T04:13:46.316Z,97162.22
2022-08-22T04:16:37.730Z,97171.97
2022-08-22T04:19:41.357Z,97175.22
2022-08-22T04:22:30.948Z,97177.94
2022-08-22T04:25:08.345Z,97172.50
2022-08-22T04:27:40.856Z,97168.44
2022-08-22T04:30:07.270Z,97171.16
2022-08-22T04:32:51.365Z,97167.66
2022-08-22T04:35:39.033Z,97172.78
2022-08-22T04:38:22.082Z,97169.00
2022-08-22T04:40:56.356Z,97173.06
2022-08-22T04:43:48.376Z,97180.13
2022-08-22T04:46:49.481Z,97170.88
2022-08-22T04:49:27.921Z,97169.53
2022-08-22T04:52:00.167Z,97173.28
2022-08-22T04:54:41.072Z,97169.78
2022-08-22T04:57:29.653Z,97172.50
2022-08-22T05:00:03.404Z,97170.88
2022-08-22T05:02:31.094Z,97166.00
2022-08-22T05:05:13.218Z,97178.25
2022-08-22T05:07:48.365Z,97179.88
2022-08-22T05:10:22.461Z,97178.25
2022-08-22T05:13:00.364Z,97175.81
2022-08-22T05:15:34.069Z,97174.44
2022-08-22T05:18:09.322Z,97183.41
2022-08-22T05:20:39.192Z,97185.88
2022-08-22T05:23:30.668Z,97183.72
2022-08-22T05:26:02.864Z,97187.53
2022-08-22T05:28:35.052Z,97188.88
2022-08-22T05:31:24.369Z,97185.88
2022-08-22T05:33:55.778Z,97189.16
2022-08-22T05:36:29.017Z,97192.97
2022-08-22T05:39:13.453Z,97196.22
2022-08-22T05:41:41.510Z,97194.06
2022-08-22T05:44:26.944Z,97191.28
2022-08-22T05:47:01.129Z,97185.31
2022-08-22T05:49:44.853Z,97188.00
2022-08-22T05:52:38.436Z,97193.66
2022-08-22T05:55:15.828Z,97191.41
2022-08-22T05:57:52.608Z,97195.19
2022-08-22T06:00:23.204Z,97185.84
2022-08-22T06:03:08.099Z,97195.28
2022-08-22T06:05:40.186Z,97184.03
2022-08-22T06:08:36.376Z,97183.13
2022-08-22T06:11:12.152Z,97184.94
2022-08-22T06:13:47.252Z,97178.81
2022-08-22T06:16:48.820Z,97185.44
2022-08-22T06:19:19.684Z,97188.03
2022-08-22T06:21:51.136Z,97191.97
2022-08-22T06:24:25.039Z,97186.91
2022-08-22T06:26:55.106Z,97179.44
2022-08-22T06:29:36.360Z,97192.91
2022-08-22T06:32:12.809Z,97188.59
2022-08-22T06:34:43.039Z,97197.09
2022-08-22T06:37:18.061Z,97194.16
2022-08-22T06:39:49.529Z,97193.13
2022-08-22T06:42:24.145Z,97194.00
2022-08-22T06:44:57.465Z,97198.41
2022-08-22T06:47:41.458Z,97197.44
2022-08-22T06:50:14.884Z,97192.66
2022-08-22T06:53:04.947Z,97199.78
2022-08-22T06:55:32.133Z,97206.31
2022-08-22T06:58:06.379Z,97211.53
2022-08-22T07:00:35.347Z,97206.16
2022-08-22T07:03:15.285Z,97204.94
2022-08-22T07:05:42.921Z,97202.88
2022-08-22T07:08:21.252Z,97208.78
2022-08-22T07:10:58.853Z,97206.97
2022-08-22T07:13:28.233Z,97211.00
2022-08-22T07:16:01.684Z,97207.19
2022-08-22T07:18:29.779Z,97204.22
2022-08-22T07:21:04.345Z,97209.13
2022-08-22T07:23:45.909Z,97209.84
2022-08-22T07:26:21.588Z,97205.84
2022-08-22T07:29:18.993Z,97210.69
2022-08-22T07:32:10.053Z,97198.91
2022-08-22T07:35:04.437Z,97208.22
2022-08-22T07:37:37.993Z,97210.66
2022-08-22T07:40:21.965Z,97210.84
2022-08-22T07:42:56.680Z,97206.00
2022-08-22T07:45:35.673Z,97214.56
2022-08-22T07:48:25.048Z,97216.38
2022-08-22T07:51:09.983Z,97213.34
2022-08-22T07:54:00.900Z,97218.03
2022-08-22T07:56:32.313Z,97214.31
2022-08-22T07:59:10.003Z,97215.94
2022-08-22T08:01:45.778Z,97218.53
2022-08-22T08:04:17.255Z,97227.75
2022-08-22T08:06:46.452Z,97222.91
2022-08-22T08:09:15.586Z,97214.84
2022-08-22T08:11:44.882Z,97215.94
2022-08-22T08:14:14.305Z,97218.06
2022-08-22T08:17:00.838Z,97224.38
2022-08-22T08:19:30.717Z,97216.75
2022-08-22T08:21:59.270Z,97222.56
2022-08-22T08:24:31.490Z,97218.66
2022-08-22T08:27:30.424Z,97226.88
2022-08-22T08:30:15.571Z,97218.78
2022-08-22T08:32:48.116Z,97232.38
2022-08-22T08:35:28.482Z,97231.25
2022-08-22T08:38:07.712Z,97227.69
2022-08-22T08:40:34.221Z,97225.03
2022-08-22T08:43:36.447Z,97218.53
2022-08-22T08:46:38.547Z,97217.00
2022-08-22T08:49:29.442Z,97221.28
2022-08-22T08:52:10.790Z,97221.38
2022-08-22T08:54:55.499Z,97218.47
2022-08-22T08:57:30.976Z,97218.72
2022-08-22T09:00:14.719Z,97205.53
2022-08-22T09:03:11.689Z,97211.63
2022-08-22T09:05:54.441Z,97214.38
2022-08-22T09:08:35.930Z,97208.69
2022-08-22T09:11:40.688Z,97218.16
2022-08-22T09:14:29.465Z,97209.81
2022-08-22T09:17:14.798Z,97212.25
2022-08-22T09:19:53.130Z,97209.72
2022-08-22T09:22:33.442Z,97209.22
2022-08-22T09:25:38.434Z,97210.59
2022-08-22T09:28:06.718Z,97212.94
2022-08-22T09:30:54.256Z,97219.03
2022-08-22T09:33:24.749Z,97213.63
2022-08-22T09:36:12.278Z,97222.97
2022-08-22T09:38:51.392Z,97218.59
2022-08-22T09:41:46.029Z,97220.28
2022-08-22T09:45:19.346Z,97219.13
2022-08-22T09:48:30.715Z,97226.28
2022-08-22T09:51:34.100Z,97217.09
2022-08-22T09:54:08.321Z,97222.41
2022-08-22T09:56:42.344Z,97224.41
2022-08-22T09:59:20.436Z,97218.03
2022-08-22T10:01:59.078Z,97219.88
2022-08-22T10:04:43.774Z,97220.25
2022-08-22T10:07:16.105Z,97216.00
2022-08-22T10:10:01.261Z,97224.50
2022-08-22T10:12:36.123Z,97214.03
2022-08-22T10:15:11.930Z,97212.34
2022-08-22T10:17:48.517Z,97208.63
2022-08-22T10:20:28.552Z,97202.28
2022-08-22T10:23:45.960Z,97209.47
2022-08-22T10:26:22.593Z,97206.28
2022-08-22T10:29:05.091Z,97194.88
2022-08-22T10:31:58.531Z,97198.91
2022-08-22T10:34:36.327Z,97197.94
2022-08-22T10:37:44.219Z,97192.00
2022-08-22T10:40:22.472Z,97189.34
2022-08-22T10:43:00.112Z,97181.50
2022-08-22T10:45:36.930Z,97190.72
2022-08-22T10:48:08.808Z,97187.34
2022-08-22T10:50:50.588Z,97185.84
2022-08-22T10:53:35.409Z,97184.75
2022-08-22T10:56:21.347Z,97177.50
2022-08-22T10:59:04.303Z,97169.41
2022-08-22T11:01:41.986Z,97179.03
2022-08-22T11:04:55.408Z,97179.13
2022-08-22T11:07:48.558Z,97172.06
2022-08-22T11:10:43.086Z,97177.88
2022-08-22T11:13:26.389Z,97166.88
2022-08-22T11:16:04.960Z,97165.47
2022-08-22T11:18:34.881Z,97167.22
2022-08-22T11:21:29.164Z,97168.53
2022-08-22T11:24:34.610Z,97172.97
2022-08-22T11:27:38.109Z,97167.03
2022-08-22T11:30:24.064Z,97159.88
2022-08-22T11:32:59.406Z,97158.06
2022-08-22T11:35:36.859Z,97154.22
2022-08-22T11:38:18.543Z,97153.75
2022-08-22T11:40:59.649Z,97151.06
2022-08-22T11:43:35.648Z,97140.81
2022-08-22T11:46:25.540Z,97141.50
2022-08-22T11:49:16.836Z,97139.91
2022-08-22T11:52:00.595Z,97140.66
2022-08-22T11:55:08.945Z,97135.63
2022-08-22T11:57:44.364Z,97132.03
2022-08-22T12:00:29.873Z,97141.25
2022-08-22T12:03:35.433Z,97139.78
2022-08-22T12:06:20.990Z,97132.47
2022-08-22T12:08:49.432Z,97136.28
2022-08-22T12:11:18.665Z,97131.53
2022-08-22T12:14:06.242Z,97136.06
2022-08-22T12:16:39.296Z,97127.50
2022-08-22T12:20:05.812Z,97131.66
2022-08-22T12:22:55.428Z,97133.31
2022-08-22T12:25:35.206Z,97130.25
2022-08-22T12:28:28.579Z,97127.53
2022-08-22T12:31:28.500Z,97120.13
2022-08-22T12:34:02.353Z,97118.59
2022-08-22T12:36:35.704Z,97111.16
2022-08-22T12:39:23.209Z,97114.94
2022-08-22T12:41:50.586Z,97108.50
2022-08-22T12:44:35.569Z,97113.25
2022-08-22T12:47:24.944Z,97108.81
2022-08-22T12:50:00.396Z,97107.59
2022-08-22T12:52:45.750Z,97100.09
2022-08-22T12:55:32.272Z,97096.44
2022-08-22T12:58:34.030Z,97103.56
2022-08-22T13:01:06.882Z,97107.69
2022-08-22T13:03:41.137Z,97098.88
2022-08-22T13:06:49.976Z,97102.84
2022-08-22T13:09:28.809Z,97094.88
2022-08-22T13:12:06.041Z,97101.13
2022-08-22T13:14:34.193Z,97093.91
2022-08-22T13:17:23.734Z,97091.03
2022-08-22T13:20:03.317Z,97079.97
2022-08-22T13:22:34.833Z,97083.28
2022-08-22T13:25:14.311Z,97081.84
2022-08-22T13:27:51.351Z,97085.06
2022-08-22T13:30:34.605Z,97077.19
2022-08-22T13:33:22.340Z,97082.50
2022-08-22T13:35:53.230Z,97085.16
2022-08-22T13:38:26.307Z,97082.75
2022-08-22T13:40:56.767Z,97081.28
2022-08-22T13:44:04.764Z,97072.97
2022-08-22T13:46:35.454Z,97075.91
2022-08-22T13:49:07.148Z,97074.13
2022-08-22T13:51:46.417Z,97066.38
2022-08-22T13:54:16.122Z,97073.38
2022-08-22T13:56:56.472Z,97069.22
2022-08-22T13:59:51.093Z,97077.06
2022-08-22T14:02:30.794Z,97067.56
2022-08-22T14:05:05.292Z,97065.22
2022-08-22T14:07:47.681Z,97067.16
2022-08-22T14:10:25.720Z,97064.47
2022-08-22T14:12:57.380Z,97058.94
2022-08-22T14:15:45.694Z,97055.06
2022-08-22T14:18:31.560Z,97055.56
2022-08-22T14:22:06.040Z,97057.97
2022-08-22T14:24:45.633Z,97059.72
2022-08-22T14:27:28.800Z,97058.72
2022-08-22T14:30:12.013Z,97059.78
2022-08-22T14:32:58.836Z,97049.72
2022-08-22T14:35:40.656Z,97062.22
2022-08-22T14:38:32.578Z,97053.94
2022-08-22T14:41:05.180Z,97048.59
2022-08-22T14:43:31.890Z,97050.78
2022-08-22T14:46:10.109Z,97057.56
2022-08-22T14:49:13.410Z,97049.47
2022-08-22T14:51:46.181Z,97049.59
2022-08-22T14:54:21.405Z,97034.69
2022-08-22T14:56:49.531Z,97031.03
2022-08-22T14:59:34.971Z,97035.28
2022-08-22T15:02:15.841Z,97033.16
2022-08-22T15:04:46.032Z,97029.72
2022-08-22T15:07:21.676Z,97027.00
2022-08-22T15:10:06.135Z,97029.66
2022-08-22T15:12:37.776Z,97031.44
2022-08-22T15:15:26.064Z,97026.53
2022-08-22T15:17:53.044Z,97023.84
2022-08-22T15:20:28.562Z,97022.56
2022-08-22T15:23:10.139Z,97025.94
2022-08-22T15:25:40.961Z,97028.13
2022-08-22T15:28:17.200Z,97023.28
2022-08-22T15:30:58.633Z,97020.78
2022-08-22T15:33:45.437Z,97022.94
2022-08-22T15:36:18.712Z,97026.78
2022-08-22T15:38:50.681Z,97020.44
2022-08-22T15:41:37.026Z,97018.56
2022-08-22T15:44:31.104Z,97016.50
2022-08-22T15:47:10.848Z,97019.75
2022-08-22T15:49:52.403Z,97010.13
2022-08-22T15:52:27.050Z,97016.59
2022-08-22T15:54:53.757Z,97014.13
2022-08-22T15:57:31.754Z,97000.22
2022-08-22T16:00:04.716Z,97012.63
2022-08-22T16:02:53.417Z,97019.56
2022-08-22T16:05:26.205Z,97012.53
2022-08-22T16:07:58.512Z,97015.44
2022-08-22T16:10:24.971Z,97015.38
2022-08-22T16:13:13.149Z,97014.81
2022-08-22T16:15:51.498Z,97014.84
2022-08-22T16:18:34.299Z,97015.88
2022-08-22T16:21:02.518Z,97013.53
2022-08-22T16:23:49.727Z,97005.75
2022-08-22T16:26:31.622Z,97003.63
2022-08-22T16:29:13.441Z,97004.56
2022-08-22T16:31:43.872Z,97001.59
2022-08-22T16:34:18.993Z,97004.72
2022-08-22T16:36:54.617Z,97002.75
2022-08-22T16:39:21.186Z,97012.53
2022-08-22T16:41:54.198Z,96996.50
2022-08-22T16:44:29.443Z,96997.38
2022-08-22T16:47:16.269Z,96998.44
2022-08-22T16:49:51.727Z,97001.91
2022-08-22T16:52:24.477Z,97004.72
2022-08-22T16:55:03.858Z,97007.25
2022-08-22T16:58:06.150Z,97008.03
2022-08-22T17:00:58.044Z,97019.91
2022-08-22T17:03:36.952Z,97009.91
2022-08-22T17:06:23.100Z,97009.00
2022-08-22T17:09:17.329Z,97003.19
2022-08-22T17:12:20.888Z,97018.38
2022-08-22T17:15:05.557Z,97016.09
2022-08-22T17:17:53.512Z,97012.38
2022-08-22T17:20:57.752Z,97019.31
2022-08-22T17:23:48.672Z,97023.22
2022-08-22T17:26:28.964Z,97023.06
2022-08-22T17:29:24.608Z,97033.06
2022-08-22T17:32:17.991Z,97030.28
2022-08-22T17:34:56.890Z,97029.78
2022-08-22T17:37:48.741Z,97031.69
2022-08-22T17:40:24.234Z,97032.47
2022-08-22T17:42:59.691Z,97033.53
2022-08-22T17:45:47.961Z,97037.28
2022-08-22T17:48:24.738Z,97037.09
2022-08-22T17:50:57.072Z,97040.78
2022-08-22T17:53:36.109Z,97043.38
2022-08-22T17:56:27.944Z,97051.84
2022-08-22T17:59:03.928Z,97046.19
2022-08-22T18:01:46.739Z,97039.88
2022-08-22T18:04:26.996Z,97047.78
2022-08-22T18:07:18.403Z,97057.97
2022-08-22T18:09:52.029Z,97052.69
2022-08-22T18:12:34.335Z,97049.06
2022-08-22T18:15:20.034Z,97048.00
2022-08-22T18:17:56.859Z,97066.78
2022-08-22T18:20:38.429Z,97062.28
2022-08-22T18:23:38.976Z,97058.81
2022-08-22T18:26:15.855Z,97063.63
2022-08-22T18:29:14.831Z,97070.28
2022-08-22T18:32:08.611Z,97073.78
2022-08-22T18:34:59.797Z,97086.09
2022-08-22T18:37:35.573Z,97079.31
2022-08-22T18:40:11.117Z,97077.25
2022-08-22T18:43:13.368Z,97083.34
2022-08-22T18:45:45.678Z,97097.13
2022-08-22T18:49:11.641Z,97092.13
2022-08-22T18:51:38.238Z,97088.28
2022-08-22T18:54:05.163Z,97092.66
2022-08-22T18:56:31.554Z,97094.28
2022-08-22T18:59:12.917Z,97091.34
2022-08-22T19:01:44.856Z,97091.00
2022-08-22T19:04:52.542Z,97100.72
2022-08-22T19:07:37.613Z,97101.94
2022-08-22T19:10:10.124Z,97105.59
2022-08-22T19:13:07.145Z,97095.84
2022-08-22T19:15:54.377Z,97105.72
2022-08-22T19:18:42.945Z,97106.19
2022-08-22T19:21:41.146Z,97109.44
2022-08-22T19:24:12.641Z,97112.56
2022-08-22T19:26:42.843Z,97111.13
2022-08-22T19:29:18.213Z,97114.72
2022-08-22T19:31:50.339Z,97115.25
2022-08-22T19:34:21.959Z,97113.50
2022-08-22T19:37:08.301Z,97114.31
2022-08-22T19:39:41.967Z,97119.81
2022-08-22T19:42:30.799Z,97122.34
2022-08-22T19:45:18.922Z,97111.28
2022-08-22T19:48:14.604Z,97121.97
2022-08-22T19:50:43.056Z,97115.78
2022-08-22T19:53:32.437Z,97120.47
2022-08-22T19:56:07.220Z,97112.97
2022-08-22T19:59:17.185Z,97110.72
2022-08-22T20:01:57.953Z,97111.06
2022-08-22T20:04:39.406Z,97111.66
2022-08-22T20:07:14.860Z,97114.13
2022-08-22T20:10:14.566Z,97113.88
2022-08-22T20:13:05.038Z,97119.47
2022-08-22T20:15:35.989Z,97110.13
2022-08-22T20:18:11.919Z,97117.47
2022-08-22T20:20:56.583Z,97119.91
2022-08-22T20:23:29.493Z,97118.00
2022-08-22T20:25:57.069Z,97118.34
2022-08-22T20:28:50.728Z,97116.97
2022-08-22T20:31:24.424Z,97125.00
2022-08-22T20:33:57.189Z,97127.94
2022-08-22T20:36:28.142Z,97124.94
2022-08-22T20:39:00.188Z,97129.78
2022-08-22T20:41:38.525Z,97136.06
2022-08-22T20:44:05.127Z,97136.75
2022-08-22T20:46:55.743Z,97137.00
2022-08-22T20:49:28.389Z,97135.22
2022-08-22T20:52:00.512Z,97136.25
2022-08-22T20:54:33.817Z,97142.56
2022-08-22T20:57:15.899Z,97146.50
2022-08-22T20:59:51.750Z,97148.75
2022-08-22T21:02:27.315Z,97144.50
2022-08-22T21:05:03.042Z,97155.34
2022-08-22T21:07:35.126Z,97149.84
2022-08-22T21:10:33.571Z,97155.03
2022-08-22T21:13:01.044Z,97147.63
2022-08-22T21:15:32.328Z,97149.84
2022-08-22T21:17:59.039Z,97151.13
2022-08-22T21:20:31.742Z,97157.75
2022-08-22T21:23:04.049Z,97148.72
2022-08-22T21:25:31.721Z,97149.59
2022-08-22T21:28:00.612Z,97151.44
2022-08-22T21:30:28.364Z,97159.09
2022-08-22T21:32:56.384Z,97157.09
2022-08-22T21:35:29.533Z,97164.06
2022-08-22T21:37:57.441Z,97158.59
2022-08-22T21:40:29.692Z,97161.06
2022-08-22T21:42:59.362Z,97158.75
2022-08-22T21:45:33.461Z,97162.97
2022-08-22T21:48:00.476Z,97160.13
2022-08-22T21:50:37.914Z,97161.38
2022-08-22T21:53:09.142Z,97165.88
2022-08-22T21:55:43.002Z,97159.13
2022-08-22T21:58:36.124Z,97162.69
2022-08-22T22:01:27.961Z,97156.25
2022-08-22T22:03:55.005Z,97161.72
2022-08-22T22:06:21.474Z,97166.00
2022-08-22T22:08:48.824Z,97159.97
2022-08-22T22:11:16.120Z,97161.38
2022-08-22T22:13:44.221Z,97163.16
2022-08-22T22:16:14.612Z,97165.59
2022-08-22T22:18:41.168Z,97172.38
2022-08-22T22:21:08.511Z,97177.91
2022-08-22T22:23:35.153Z,97193.22
2022-08-22T22:26:03.945Z,97200.09
2022-08-22T22:28:38.848Z,97197.78
2022-08-22T22:31:05.590Z,97198.06
2022-08-22T22:33:36.402Z,97201.66
2022-08-22T22:36:06.809Z,97197.16
2022-08-22T22:38:33.648Z,97197.00
2022-08-22T22:41:00.195Z,97199.03
2022-08-22T22:43:27.463Z,97197.56
2022-08-22T22:45:53.977Z,97204.34
2022-08-22T22:48:24.158Z,97196.78
2022-08-22T22:50:52.600Z,97206.63
2022-08-22T22:53:21.436Z,97203.91
2022-08-22T22:56:00.734Z,97211.47
2022-08-22T22:58:28.316Z,97206.47
2022-08-22T23:00:55.799Z,97206.97
2022-08-22T23:03:22.644Z,97203.25
2022-08-22T23:05:49.134Z,97203.78
2022-08-22T23:08:15.625Z,97205.13
2022-08-22T23:10:42.112Z,97198.25
2022-08-22T23:13:08.798Z,97207.53
2022-08-22T23:15:36.989Z,97212.09
2022-08-22T23:18:03.506Z,97214.88
2022-08-22T23:20:30.013Z,97222.09
2022-08-22T23:22:56.542Z,97217.19
2022-08-22T23:25:23.056Z,97223.88
2022-08-22T23:27:52.311Z,97228.44
2022-08-22T23:30:19.584Z,97228.22
2022-08-22T23:32:46.120Z,97230.19
2022-08-22T23:35:12.674Z,97217.16
2022-08-22T23:37:39.249Z,97224.25
2022-08-22T23:40:08.459Z,97221.81
2022-08-22T23:42:35.394Z,97217.41
2022-08-22T23:45:01.998Z,97211.75
2022-08-22T23:47:28.502Z,97218.53
2022-08-22T23:49:54.950Z,97217.97
2022-08-22T23:52:21.467Z,97212.25
2022-08-22T23:54:48.052Z,97218.22
2022-08-22T23:57:20.941Z,97218.66
2022-08-22T23:59:57.324Z,97218.53
